METAR v bližini

 

LJLJ - Ljubljana/Brnik, Slovenia
Oddaljenost od postaje: W 41km
Podatki zajeti: 20/03/2019 14:30
Rahlo oblačno
Rahlo oblačno
 Veter iz smeri E
Veter: E 26 km/h
Temperatura: 10°C
Občutek mraza zaradi vetra: 7°C
Rosišče: -4°C
Vlažnost: 37%
Tlak: 1030 hPa
Oblačnost: Rahlo oblačno
Vidljivost: 10 km
Podrobnosti o oblakih: Rahlo oblačno 1829 m
2019/03/20 13:30 LJLJ 201330Z 09014KT 9999 FEW060 10/M04 Q1030 NOSIG
LJMB - Maribor, Slovenia
Oddaljenost od postaje: NE 63km
Podatki zajeti: 20/03/2019 14:30
Jasno
Jasno
 Veter iz smeri NE
Veter: NE 13 km/h
Temperatura: 10°C
Občutek mraza zaradi vetra: 8°C
Rosišče: -5°C
Vlažnost: 35%
Tlak: 1032 hPa
Stanje: Jasno
Vidljivost: večja od 10 km
2019/03/20 13:30 LJMB 201330Z 04007KT 010V090 CAVOK 10/M05 Q1032
 
LJPZ - Portoroz, Slovenia
Oddaljenost od postaje: SW 130km
Podatki zajeti: 20/03/2019 14:30
Rahlo oblačno
Rahlo oblačno
 Veter iz smeri NE
Veter: NE 24 km/h
Temperatura: 13°C
Rosišče: -5°C
Vlažnost: 28%
Tlak: 1029 hPa
Oblačnost: Rahlo oblačno
Vidljivost: 10 km
Podrobnosti o oblakih: Rahlo oblačno 1524 m
2019/03/20 13:30 LJPZ 201330Z 05013KT 020V100 9999 FEW050 13/M05 Q1029
LJCE - Cerklje, Slovenia
Oddaljenost od postaje: ESE 49km
Podatki zajeti: 20/03/2019 14:30
Jasno
Jasno
 Veter iz smeri ENE
Veter: ENE 24 km/h
Temperatura: 10°C
Občutek mraza zaradi vetra: 7°C
Rosišče: -4°C
Vlažnost: 37%
Tlak: 1032 hPa
Stanje: Jasno
Vidljivost: večja od 10 km
2019/03/20 13:30 LJCE 201330Z 07013KT 040V100 CAVOK 10/M04 Q1032 RMK BLU
 
LDZA - Zagreb/Pleso, Croatia
Oddaljenost od postaje: ESE 96km
Podatki zajeti: 20/03/2019 14:30
Jasno
Jasno
 Veter iz smeri ENE
Veter: ENE 19 km/h
Temperatura: 11°C
Rosišče: -3°C
Vlažnost: 38%
Tlak: 1031 hPa
Stanje: Jasno
Vidljivost: večja od 10 km
2019/03/20 13:30 LDZA 201330Z 07010KT 020V110 CAVOK 11/M03 Q1031 NOSIG
LDRI - Rijeka/Omisalj, Croatia
Oddaljenost od postaje: SSW 109km
Podatki zajeti: 20/03/2019 14:30
Rahlo oblačno
Rahlo oblačno
 Veter iz smeri NE
Veter: NE 31 km/h, Sunek vetra: 52 km/h
Temperatura: 12°C
Rosišče: -5°C
Vlažnost: 30%
Tlak: 1028 hPa
Oblačnost: Rahlo oblačno
Vidljivost: 10 km
Podrobnosti o oblakih: Rahlo oblačno 1524 m
2019/03/20 13:30 LDRI 201330Z 05017G28KT 360V090 9999 FEW050 12/M05 Q1028
 
LDPL - Pula, Croatia
Oddaljenost od postaje: SSW 164km
Podatki zajeti: 20/03/2019 14:30
Jasno
Jasno
 Veter iz smeri ENE
Veter: ENE 24 km/h
Temperatura: 12°C
Rosišče: -3°C
Vlažnost: 35%
Tlak: 1028 hPa
Stanje: Jasno
Vidljivost: večja od 10 km
2019/03/20 13:30 LDPL 201330Z 06013KT 360V100 CAVOK 12/M03 Q1028 NOSIG
LOWK - Klagenfurt(Civ/M, Austria
Oddaljenost od postaje: NW 76km
Podatki zajeti: 20/03/2019 14:20
Rahlo oblačno
Rahlo oblačno
 Veter iz smeri E
Veter: E 11 km/h
Temperatura: 8°C
Občutek mraza zaradi vetra: 6°C
Rosišče: -4°C
Vlažnost: 43%
Tlak: 1031 hPa
Oblačnost: Rahlo oblačno
Vidljivost: 10 km
Podrobnosti o oblakih: Rahlo oblačno 1829 m
2019/03/20 13:20 LOWK 201320Z 10006KT 040V180 9999 FEW060 08/M04 Q1031 NOSIG
 
LOWG - Graz (mil/Civ), Austria
Oddaljenost od postaje: NNE 100km
Podatki zajeti: 20/03/2019 14:20
Delno oblačno
Delno oblačno
 Veter iz smeri ENE
Veter: ENE 13 km/h
Temperatura: 10°C
Občutek mraza zaradi vetra: 8°C
Rosišče: -6°C
Vlažnost: 32%
Tlak: 1032 hPa
Oblačnost: Delno oblačno
Vidljivost: 10 km
Podrobnosti o oblakih: Delno oblačno 2134 m
2019/03/20 13:20 LOWG 201320Z 07007KT 020V090 9999 SCT070 10/M06 Q1032 R17/19//95 NOSIG
LOAN - Wr.neustadt East, Austria
Oddaljenost od postaje: NNE 212km
Podatki zajeti: 20/03/2019 14:00
Pretežno oblačno
Pretežno oblačno
 Veter iz smeri N
Veter: N 19 km/h
Oblačnost: Pretežno oblačno
Podrobnosti o oblakih: Delno oblačno 1524 m
Pretežno oblačno 3048 m
2019/03/20 13:00 LOAN 201300Z 35010KT 40KM SCT050SC BKN100AC
 
LIPQ - Ronchi Legionari, Italy
Oddaljenost od postaje: SW 35km
Podatki zajeti: 20/03/2019 14:20
Jasno
Jasno
 Veter iz smeri ENE
Veter: ENE 24 km/h
Temperatura: 13°C
Rosišče: -4°C
Vlažnost: 31%
Tlak: 1030 hPa
Stanje: Jasno
Vidljivost: večja od 10 km
2019/03/20 13:20 LIPQ 201320Z 07013KT 050V110 CAVOK 13/M04 Q1030
LIVT - Trieste, Italy
Oddaljenost od postaje: WSW 109km
Podatki zajeti: 20/03/2019 13:55
Jasno
Jasno
 Veter iz smeri E
Veter: E 7 km/h, Sunek vetra: 26 km/h
Temperatura: 13°C
Rosišče: -4°C
Vlažnost: 31%
Tlak: 1029 hPa
Stanje: Jasno
Vidljivost: večja od 10 km
2019/03/20 12:55 LIVT 201255Z 08004G14KT CAVOK 13/M04 Q1029 RMK SKC QUK 2 QUL 1 NE VIS MAR 20 KM VIS MIN 9999
 
LIVO - Tarvisio, Italy
Oddaljenost od postaje: NNW 49km
Podatki zajeti: 20/03/2019 13:55
Rahlo oblačno
Rahlo oblačno
 Veter iz smeri SE
Veter: SE 7 km/h
Temperatura: 4°C
Občutek mraza zaradi vetra: 2°C
Rosišče: -4°C
Vlažnost: 56%
Tlak: 1029 hPa
Oblačnost: Rahlo oblačno
Vidljivost: 10 km
Podrobnosti o oblakih: Rahlo oblačno 975 m
2019/03/20 12:55 LIVO 201255Z 14004KT 9999 FEW032 04/M04 Q1029 RMK FEW VIS MIN 9999
LIPZ - Venezia/Tessera, Italy
Oddaljenost od postaje: WSW 217km
Podatki zajeti: 20/03/2019 14:20
Jasno
Jasno
 Veter iz smeri E
Veter: E 19 km/h
Temperatura: 13°C
Rosišče: 0°C
Vlažnost: 41%
Tlak: 1030 hPa
Stanje: Jasno
Vidljivost: večja od 10 km
2019/03/20 13:20 LIPZ 201320Z 10010KT CAVOK 13/00 Q1030 NOSIG
 
LHSM - Balaton, Hungary
Oddaljenost od postaje: ENE 177km
Podatki zajeti: 20/03/2019 14:15
Jasno
Jasno
 Veter iz smeri N
Veter: N 17 km/h, Sunek vetra: 35 km/h
Temperatura: 11°C
Rosišče: -5°C
Vlažnost: 32%
Tlak: 1033 hPa
Stanje: Jasno
Vidljivost: večja od 10 km
2019/03/20 13:15 LHSM 201315Z 36009G19KT CAVOK 11/M05 Q1033 NOSIG